Time;durP1;ratioP1;P1;durP2;ratioP2;P2;SDS_P1;SDS_P2;PMS_P1;PMS_P2;Temp;Humidity;BMP_temperature;BMP_pressure;BME280_temperature;BME280_humidity;BME280_pressure;Samples;Min_cycle;Max_cycle;Signal;HPM_P1;HPM_P2
2021/12/29 00:00:15;;;;;;;5.30;1.30;;;;;;;18.77;54.85;99203.03;5070345;28;20456;-60
2021/12/29 00:02:40;;;;;;;4.60;1.10;;;;;;;18.75;54.12;99206.28;5069688;28;20179;-60
2021/12/29 00:05:06;;;;;;;4.47;1.87;;;;;;;18.78;54.29;99211.19;5071277;28;20464;-60
2021/12/29 00:07:32;;;;;;;4.93;1.67;;;;;;;18.74;54.54;99215.25;5071002;28;20289;-60
2021/12/29 00:10:00;;;;;;;5.23;1.50;;;;;;;18.73;54.48;99217.31;5071380;28;20453;-61
2021/12/29 00:12:26;;;;;;;4.33;1.43;;;;;;;18.77;54.47;99223.84;5068256;28;20210;-60
2021/12/29 00:14:55;;;;;;;3.40;1.20;;;;;;;18.73;54.21;99222.22;5070271;28;20956;-60
2021/12/29 00:17:20;;;;;;;5.07;1.63;;;;;;;18.76;54.27;99227.13;5069857;28;20425;-60
2021/12/29 00:19:46;;;;;;;2.93;1.30;;;;;;;18.74;54.25;99235.28;5049989;28;20830;-60
2021/12/29 00:22:11;;;;;;;5.20;1.73;;;;;;;18.76;54.39;99238.56;5070018;28;20252;-59
2021/12/29 00:24:36;;;;;;;4.10;1.40;;;;;;;18.73;54.54;99247.94;5071736;28;20206;-60
2021/12/29 00:27:04;;;;;;;4.60;1.37;;;;;;;18.75;54.55;99254.06;5070233;28;20183;-60
2021/12/29 00:29:30;;;;;;;4.33;1.60;;;;;;;18.74;54.55;99253.25;5071117;28;20634;-60
2021/12/29 00:31:55;;;;;;;4.03;1.67;;;;;;;18.77;54.27;99255.28;5052818;28;20416;-60
2021/12/29 00:34:21;;;;;;;4.23;1.70;;;;;;;18.71;54.52;99265.50;5070343;28;20574;-60
2021/12/29 00:36:46;;;;;;;3.80;1.50;;;;;;;18.73;54.22;99253.66;5071309;28;20171;-60
2021/12/29 00:39:11;;;;;;;5.70;1.83;;;;;;;18.75;54.69;99272.03;5064796;28;20230;-60
2021/12/29 00:41:37;;;;;;;4.53;1.53;;;;;;;18.75;54.70;99271.22;5052888;28;20559;-60
2021/12/29 00:44:02;;;;;;;3.03;1.13;;;;;;;18.72;54.41;99284.28;5071176;28;20609;-60
2021/12/29 00:46:28;;;;;;;4.03;1.50;;;;;;;18.73;54.72;99300.25;5071796;28;20182;-60
2021/12/29 00:48:53;;;;;;;3.70;1.53;;;;;;;18.73;54.30;99314.53;5069847;28;20175;-60
2021/12/29 00:51:19;;;;;;;5.80;1.60;;;;;;;18.71;54.61;99308.38;5073543;28;20181;-60
2021/12/29 00:53:44;;;;;;;4.40;1.47;;;;;;;18.73;54.35;99313.72;5090616;28;20169;-60
2021/12/29 00:56:10;;;;;;;4.17;1.43;;;;;;;18.73;54.35;99313.72;5077781;28;20187;-60
2021/12/29 00:58:35;;;;;;;3.93;1.63;;;;;;;18.74;54.43;99318.19;5070805;28;20226;-60
2021/12/29 01:01:01;;;;;;;5.20;1.37;;;;;;;18.70;54.90;99335.34;5069901;28;20183;-60
2021/12/29 01:03:26;;;;;;;4.67;1.40;;;;;;;18.69;54.48;99339.44;5061304;28;20920;-60
2021/12/29 01:05:52;;;;;;;4.77;1.50;;;;;;;18.71;54.57;99339.84;5066020;28;20198;-60
2021/12/29 01:08:17;;;;;;;4.20;1.70;;;;;;;18.70;54.60;99354.53;5070844;28;20190;-60
2021/12/29 01:10:43;;;;;;;4.80;1.83;;;;;;;18.73;54.46;99354.56;5051916;28;20638;-61
2021/12/29 01:13:14;;;;;;;3.27;1.20;;;;;;;18.70;54.62;99375.38;5069715;28;20179;-60
2021/12/29 01:15:57;;;;;;;3.63;1.57;;;;;;;18.70;54.97;99383.13;5070446;28;20171;-60
2021/12/29 01:18:23;;;;;;;4.30;1.40;;;;;;;18.68;54.33;99374.97;5070600;28;20905;-60
2021/12/29 01:20:48;;;;;;;6.53;2.30;;;;;;;18.66;54.63;99376.59;5051518;28;20534;-60
2021/12/29 01:23:13;;;;;;;3.43;1.47;;;;;;;18.66;54.68;99371.69;5069205;28;20167;-60
2021/12/29 01:25:39;;;;;;;5.47;1.20;;;;;;;18.69;54.56;99376.59;5068948;28;20206;-60
2021/12/29 01:28:04;;;;;;;4.00;1.40;;;;;;;18.67;54.76;99367.59;5070184;28;20175;-60
2021/12/29 01:30:30;;;;;;;2.90;1.33;;;;;;;18.67;55.15;99366.78;5069720;28;20171;-60
2021/12/29 01:32:55;;;;;;;3.70;1.23;;;;;;;18.66;54.51;99373.75;5063981;28;20566;-60
2021/12/29 01:35:21;;;;;;;3.43;1.50;;;;;;;18.63;54.42;99366.78;5069957;28;20167;-60
2021/12/29 01:37:46;;;;;;;5.93;1.50;;;;;;;18.64;54.52;99371.28;5062797;28;20183;-60
2021/12/29 01:40:14;;;;;;;5.60;1.67;;;;;;;18.65;54.68;99386.38;5069620;28;20175;-60
2021/12/29 01:42:40;;;;;;;4.73;1.87;;;;;;;18.66;54.91;99394.56;5069486;28;20175;-60
2021/12/29 01:45:06;;;;;;;3.10;1.50;;;;;;;18.64;54.74;99407.63;5065234;28;20496;-60
2021/12/29 01:47:32;;;;;;;6.27;1.60;;;;;;;18.67;54.58;99418.25;5069154;28;20175;-60
2021/12/29 01:49:59;;;;;;;4.50;1.27;;;;;;;18.66;55.28;99414.56;5068298;28;20198;-60
2021/12/29 01:52:29;;;;;;;3.00;1.10;;;;;;;18.69;54.47;99419.50;5070084;28;20424;-60
2021/12/29 01:54:54;;;;;;;3.60;1.23;;;;;;;18.65;54.54;99420.69;5069582;28;20456;-60
2021/12/29 01:57:20;;;;;;;3.60;1.10;;;;;;;18.62;54.50;99422.31;5067993;28;20771;-60
2021/12/29 01:59:45;;;;;;;2.83;1.20;;;;;;;18.63;54.90;99440.28;5068412;28;20583;-60
2021/12/29 02:02:14;;;;;;;2.30;0.90;;;;;;;18.62;54.98;99450.91;5068253;28;20190;-60
2021/12/29 02:04:45;;;;;;;5.13;1.47;;;;;;;18.66;54.18;99454.59;5068955;28;20220;-61
2021/12/29 02:07:11;;;;;;;4.23;1.73;;;;;;;18.62;54.57;99453.75;5067654;28;20440;-59
2021/12/29 02:09:37;;;;;;;3.07;1.30;;;;;;;18.64;54.63;99453.34;5050547;28;20999;-60
2021/12/29 02:12:03;;;;;;;2.77;1.30;;;;;;;18.63;54.61;99452.56;5057712;28;20537;-60
2021/12/29 02:14:28;;;;;;;5.57;1.60;;;;;;;18.64;54.36;99464.78;5049902;28;20176;-61
2021/12/29 02:16:54;;;;;;;3.00;1.33;;;;;;;18.63;54.82;99458.28;5050654;28;20434;-59
2021/12/29 02:19:20;;;;;;;3.50;1.43;;;;;;;18.61;55.19;99468.47;5068944;28;20583;-59
2021/12/29 02:21:55;;;;;;;4.43;1.17;;;;;;;18.63;54.72;99458.28;5068848;28;20174;-60
2021/12/29 02:24:33;;;;;;;3.03;1.10;;;;;;;18.64;54.31;99473.38;5068870;28;21050;-60
2021/12/29 02:26:59;;;;;;;4.30;1.10;;;;;;;18.61;54.71;99465.63;5068707;28;20716;-60
2021/12/29 02:29:24;;;;;;;2.60;1.10;;;;;;;18.60;54.79;99464.78;5049542;28;20444;-60
2021/12/29 02:31:49;;;;;;;3.40;1.20;;;;;;;18.61;54.72;99469.28;5035205;28;20564;-60
2021/12/29 02:34:15;;;;;;;3.03;1.23;;;;;;;18.64;54.58;99481.94;5050521;28;20629;-60
2021/12/29 02:36:43;;;;;;;3.83;1.40;;;;;;;18.59;55.19;99477.44;5069522;28;20186;-59
2021/12/29 02:39:11;;;;;;;7.30;1.00;;;;;;;18.59;54.73;99477.44;5068238;28;20559;-60
2021/12/29 02:41:44;;;;;;;2.93;1.10;;;;;;;18.59;55.30;99494.59;5069944;28;20496;-60
2021/12/29 02:44:15;;;;;;;2.83;1.17;;;;;;;18.56;55.24;99503.97;5049707;28;20469;-60
2021/12/29 02:46:40;;;;;;;2.73;1.10;;;;;;;18.59;54.79;99496.63;5067186;28;20428;-60
2021/12/29 02:49:06;;;;;;;2.93;1.00;;;;;;;18.58;54.77;99518.69;5049267;28;20882;-60
2021/12/29 02:51:32;;;;;;;5.93;1.30;;;;;;;18.62;54.23;99510.94;5067696;28;20171;-60
2021/12/29 02:53:57;;;;;;;5.27;1.70;;;;;;;18.59;54.48;99517.47;5067757;28;20274;-60
2021/12/29 02:56:24;;;;;;;4.60;1.27;;;;;;;18.61;54.44;99515.00;5066299;28;20433;-60
2021/12/29 02:58:49;;;;;;;3.10;1.20;;;;;;;18.59;54.86;99514.59;5063547;28;20261;-60
2021/12/29 03:01:15;;;;;;;4.47;1.00;;;;;;;18.61;54.49;99512.16;5066685;28;20409;-60
2021/12/29 03:03:41;;;;;;;2.50;0.90;;;;;;;18.57;54.74;99517.03;5067437;28;20186;-60
2021/12/29 03:06:06;;;;;;;2.53;1.00;;;;;;;18.57;54.64;99511.31;5068016;28;20429;-60
2021/12/29 03:08:32;;;;;;;2.93;1.30;;;;;;;18.56;54.64;99518.25;5068404;28;20225;-60
2021/12/29 03:10:57;;;;;;;2.40;1.20;;;;;;;18.59;54.43;99514.59;5067296;28;20178;-60
2021/12/29 03:13:24;;;;;;;3.00;1.37;;;;;;;18.54;54.82;99505.59;5066641;28;20638;-59
2021/12/29 03:15:50;;;;;;;3.73;1.17;;;;;;;18.56;54.51;99517.44;5071022;28;20536;-60
2021/12/29 03:18:15;;;;;;;2.50;1.00;;;;;;;18.57;54.33;99534.19;5071873;28;20409;-60
2021/12/29 03:20:41;;;;;;;3.63;1.20;;;;;;;18.60;54.59;99526.84;5072067;28;20959;-60
2021/12/29 03:23:06;;;;;;;2.60;1.53;;;;;;;18.59;54.73;99526.03;5072290;28;20537;-59
2021/12/29 03:25:32;;;;;;;3.60;1.30;;;;;;;18.56;54.56;99529.69;5071689;28;20198;-60
2021/12/29 03:28:00;;;;;;;6.53;0.90;;;;;;;18.60;54.96;99524.81;5072660;28;20179;-60
2021/12/29 03:30:33;;;;;;;2.70;1.03;;;;;;;18.59;54.77;99523.19;5071408;28;20174;-61
2021/12/29 03:33:04;;;;;;;2.93;1.03;;;;;;;18.54;54.63;99526.44;5054847;28;20417;-60
2021/12/29 03:35:40;;;;;;;2.00;1.00;;;;;;;18.57;54.98;99522.75;5071411;28;20497;-60
2021/12/29 03:38:08;;;;;;;3.10;1.23;;;;;;;18.61;54.57;99528.50;5072251;28;20393;-60
2021/12/29 03:40:35;;;;;;;2.73;1.10;;;;;;;18.56;54.48;99529.69;5070903;28;20441;-60
2021/12/29 03:43:00;;;;;;;2.10;0.90;;;;;;;18.59;54.49;99526.03;5070254;28;20425;-60
2021/12/29 03:45:26;;;;;;;2.63;1.20;;;;;;;18.59;54.96;99520.31;5071084;28;20456;-60
2021/12/29 03:47:51;;;;;;;3.03;1.20;;;;;;;18.57;54.53;99522.75;5070589;28;20183;-60
2021/12/29 03:50:17;;;;;;;2.60;0.97;;;;;;;18.58;54.39;99535.84;5072017;28;20631;-60
2021/12/29 03:52:42;;;;;;;2.70;1.10;;;;;;;18.60;54.05;99538.28;5070372;28;20190;-60
2021/12/29 03:55:08;;;;;;;2.47;1.17;;;;;;;18.56;55.00;99534.59;5071894;28;20960;-60
2021/12/29 03:57:33;;;;;;;2.40;1.20;;;;;;;18.58;54.51;99530.13;5071290;28;20175;-60
2021/12/29 03:59:59;;;;;;;2.47;1.00;;;;;;;18.56;54.42;99538.25;5070291;28;20743;-60
2021/12/29 04:02:24;;;;;;;2.27;0.90;;;;;;;18.57;54.06;99534.19;5071500;28;20163;-60
2021/12/29 04:04:50;;;;;;;2.47;0.90;;;;;;;18.57;54.89;99527.66;5067460;28;20199;-60
2021/12/29 04:07:15;;;;;;;3.47;1.20;;;;;;;18.56;54.61;99535.41;5071264;28;20566;-60
2021/12/29 04:09:40;;;;;;;1.90;0.90;;;;;;;18.55;54.56;99542.34;5071407;28;20567;-60
2021/12/29 04:12:06;;;;;;;2.40;1.10;;;;;;;18.55;54.42;99553.78;5070429;28;20221;-60
2021/12/29 04:14:32;;;;;;;2.53;1.00;;;;;;;18.60;54.24;99553.41;5061037;28;20207;-60
2021/12/29 04:17:06;;;;;;;3.50;1.00;;;;;;;18.61;54.26;99543.59;5071065;28;20250;-59
2021/12/29 04:20:54;;;;;;;2.20;0.90;;;;;;;18.57;54.53;99547.69;5070521;28;20185;-59
2021/12/29 04:22:26;;;;;;;2.03;0.87;;;;;;;18.57;54.22;99548.47;5066303;28;20463;-60
2021/12/29 04:24:52;;;;;;;2.03;1.10;;;;;;;18.61;54.48;99539.94;5071156;28;20459;-60
2021/12/29 04:27:17;;;;;;;2.70;1.10;;;;;;;18.61;53.90;99539.94;5071669;28;20171;-60
2021/12/29 04:29:43;;;;;;;2.60;1.27;;;;;;;18.59;54.46;99543.19;5071081;28;20266;-60
2021/12/29 04:32:08;;;;;;;2.70;1.10;;;;;;;18.62;54.71;99553.00;5071139;28;20241;-59
2021/12/29 04:34:33;;;;;;;2.50;1.10;;;;;;;18.60;54.16;99552.56;5069307;28;20182;-60
2021/12/29 04:36:59;;;;;;;4.20;1.17;;;;;;;18.62;53.87;99559.53;5071001;28;20538;-60
2021/12/29 04:39:24;;;;;;;2.30;0.83;;;;;;;18.60;53.97;99556.25;5052408;28;20216;-60
2021/12/29 04:41:50;;;;;;;2.13;0.97;;;;;;;18.58;54.20;99558.72;5070658;28;20206;-60
2021/12/29 04:44:15;;;;;;;3.63;0.90;;;;;;;18.61;54.04;99557.91;5070016;28;20206;-60
2021/12/29 04:46:45;;;;;;;3.00;1.10;;;;;;;18.58;54.67;99564.44;5070698;28;20183;-60
2021/12/29 04:49:14;;;;;;;3.73;1.20;;;;;;;18.57;54.63;99579.91;5068237;28;20554;-60
2021/12/29 04:51:47;;;;;;;2.40;1.10;;;;;;;18.60;54.13;99582.00;5068964;28;20436;-60
2021/12/29 04:54:12;;;;;;;2.87;1.20;;;;;;;18.57;54.28;99584.84;5070913;28;20393;-60
2021/12/29 04:56:38;;;;;;;2.97;1.00;;;;;;;18.61;54.25;99589.34;5070263;28;20963;-59
2021/12/29 04:59:03;;;;;;;3.00;1.00;;;;;;;18.56;54.58;99592.56;5068941;28;20227;-60
2021/12/29 05:01:29;;;;;;;2.53;0.90;;;;;;;18.56;54.21;99601.16;5069223;28;20183;-61
2021/12/29 05:03:54;;;;;;;2.07;1.30;;;;;;;18.55;54.53;99602.38;5070800;28;20199;-60
2021/12/29 05:08:48;;;;;;;2.63;1.00;;;;;;;18.54;54.44;99605.63;5070354;28;20194;-60
2021/12/29 05:11:15;;;;;;;2.13;1.00;;;;;;;18.57;54.24;99602.78;5070680;28;20784;-60
2021/12/29 05:13:41;;;;;;;4.30;1.00;;;;;;;18.56;54.34;99603.22;5070674;28;20266;-60
2021/12/29 05:16:07;;;;;;;2.37;0.87;;;;;;;18.58;54.18;99601.59;5053465;28;20416;-60
2021/12/29 05:18:33;;;;;;;4.17;1.13;;;;;;;18.55;54.52;99599.53;5068718;28;20806;-59
2021/12/29 05:20:59;;;;;;;3.40;1.33;;;;;;;18.56;54.29;99609.72;5070722;28;20166;-60
2021/12/29 05:23:24;;;;;;;1.80;0.80;;;;;;;18.54;54.71;99619.91;5070778;28;20444;-60
2021/12/29 05:25:50;;;;;;;3.10;0.97;;;;;;;18.60;53.96;99624.88;5051714;28;20194;-60
2021/12/29 05:28:17;;;;;;;2.30;1.10;;;;;;;18.60;54.00;99622.00;5069830;28;20186;-60
2021/12/29 05:30:43;;;;;;;3.17;1.10;;;;;;;18.56;53.90;99624.03;5070481;28;20258;-60
2021/12/29 05:33:08;;;;;;;1.97;0.80;;;;;;;18.56;54.05;99634.66;5070382;28;20669;-61
2021/12/29 05:35:34;;;;;;;2.00;0.90;;;;;;;18.54;53.97;99642.78;5069490;28;20225;-60
2021/12/29 05:37:59;;;;;;;2.30;1.10;;;;;;;18.60;54.22;99644.88;5064892;28;20225;-60
2021/12/29 05:40:26;;;;;;;2.37;0.83;;;;;;;18.57;54.40;99642.00;5066644;28;20598;-59
2021/12/29 05:42:52;;;;;;;2.70;1.10;;;;;;;18.55;54.10;99641.56;5067741;28;20187;-60
2021/12/29 05:45:18;;;;;;;2.40;0.90;;;;;;;18.53;54.27;99627.69;5066123;28;20456;-60
2021/12/29 05:47:43;;;;;;;2.10;0.90;;;;;;;18.54;54.44;99635.03;5051107;28;20667;-60
2021/12/29 05:50:11;;;;;;;1.90;1.03;;;;;;;18.54;53.96;99628.50;5069657;28;20182;-59
2021/12/29 05:52:36;;;;;;;3.27;1.20;;;;;;;18.55;54.39;99633.81;5069233;28;20182;-61
2021/12/29 05:55:02;;;;;;;2.40;1.00;;;;;;;18.55;54.03;99633.81;5067950;28;20877;-60
2021/12/29 05:57:27;;;;;;;2.43;0.83;;;;;;;18.59;53.84;99614.66;5076561;28;20543;-60
2021/12/29 05:59:53;;;;;;;3.53;1.30;;;;;;;18.55;54.13;99616.66;5088600;28;20229;-60
2021/12/29 06:02:18;;;;;;;3.20;1.10;;;;;;;18.57;54.37;99619.13;5070112;28;20198;-60
2021/12/29 06:04:43;;;;;;;2.83;1.20;;;;;;;18.55;54.09;99621.56;5069460;28;20541;-60
2021/12/29 06:07:09;;;;;;;2.30;0.90;;;;;;;18.54;54.39;99628.50;5068296;28;20214;-60
2021/12/29 06:09:34;;;;;;;1.80;0.77;;;;;;;18.55;54.32;99622.38;5069830;28;20627;-60
2021/12/29 06:12:00;;;;;;;2.50;1.00;;;;;;;18.54;54.41;99615.03;5069053;28;20217;-59
2021/12/29 06:14:25;;;;;;;3.80;1.20;;;;;;;18.58;54.01;99618.75;5066361;28;20171;-60
2021/12/29 06:16:50;;;;;;;2.50;0.80;;;;;;;18.56;53.91;99618.31;5059975;28;20245;-60
2021/12/29 06:19:16;;;;;;;2.60;1.23;;;;;;;18.55;54.00;99613.81;5081585;28;20182;-60
2021/12/29 06:21:41;;;;;;;2.23;1.00;;;;;;;18.59;53.94;99622.41;5082575;28;20545;-60
2021/12/29 06:24:07;;;;;;;2.67;0.90;;;;;;;18.60;54.18;99626.91;5069345;28;20712;-60
2021/12/29 06:26:34;;;;;;;1.90;0.80;;;;;;;18.55;53.93;99639.53;5068848;28;20257;-60
2021/12/29 06:28:59;;;;;;;2.07;0.80;;;;;;;18.57;53.74;99654.25;5067201;28;20654;-60
2021/12/29 06:31:25;;;;;;;2.40;1.10;;;;;;;18.55;54.09;99650.97;5068442;28;20425;-60
2021/12/29 06:33:51;;;;;;;4.47;1.10;;;;;;;18.57;53.92;99659.97;5067607;28;20232;-60
2021/12/29 06:36:16;;;;;;;1.63;0.70;;;;;;;18.61;53.90;99651.44;5068522;28;20428;-60
2021/12/29 06:38:41;;;;;;;1.97;0.70;;;;;;;18.57;53.74;99659.97;5068537;28;20178;-60
2021/12/29 06:41:07;;;;;;;1.93;0.80;;;;;;;18.59;53.76;99668.16;5068568;28;20183;-62
2021/12/29 06:43:32;;;;;;;2.13;0.70;;;;;;;18.56;54.73;99680.41;5069294;28;20181;-60
2021/12/29 06:45:58;;;;;;;3.53;0.90;;;;;;;18.57;54.08;99676.31;5068546;28;20677;-59
2021/12/29 06:48:23;;;;;;;3.30;0.97;;;;;;;18.60;53.93;99675.50;5069483;28;20174;-60
2021/12/29 06:50:49;;;;;;;2.40;1.00;;;;;;;18.59;53.71;99674.69;5049430;28;20244;-60
2021/12/29 06:53:14;;;;;;;2.33;0.80;;;;;;;18.57;54.16;99682.84;5052260;28;20206;-59
2021/12/29 06:55:42;;;;;;;2.83;1.10;;;;;;;18.61;54.06;99683.69;5051286;28;20540;-60
2021/12/29 06:58:08;;;;;;;2.13;0.87;;;;;;;18.57;54.19;99682.84;5059681;28;20171;-60
2021/12/29 07:00:33;;;;;;;2.00;1.10;;;;;;;18.57;54.01;99673.47;5069210;28;20389;-60
2021/12/29 07:02:59;;;;;;;3.93;1.20;;;;;;;18.58;53.92;99681.63;5067801;28;20175;-60
2021/12/29 07:05:24;;;;;;;2.10;0.70;;;;;;;18.60;54.06;99684.06;5068410;28;20222;-60
2021/12/29 07:07:52;;;;;;;2.13;1.00;;;;;;;18.56;54.06;99686.91;5066454;28;20567;-60
2021/12/29 07:10:17;;;;;;;3.13;1.00;;;;;;;18.59;54.04;99694.72;5067219;28;20186;-59
2021/12/29 07:12:43;;;;;;;3.87;1.00;;;;;;;18.59;54.35;99688.16;5067235;28;20410;-60
2021/12/29 07:15:08;;;;;;;1.90;0.90;;;;;;;18.56;54.23;99684.06;5067734;28;20179;-60
2021/12/29 07:17:34;;;;;;;1.97;0.80;;;;;;;18.56;54.30;99692.63;5067534;28;20214;-60
2021/12/29 07:19:59;;;;;;;3.10;1.00;;;;;;;18.56;54.08;99692.63;5068912;28;20692;-60
2021/12/29 07:22:25;;;;;;;1.90;0.80;;;;;;;18.59;53.90;99697.56;5068894;28;20221;-59
2021/12/29 07:24:50;;;;;;;2.80;1.00;;;;;;;18.57;54.03;99702.84;5068329;28;20203;-59
2021/12/29 07:27:16;;;;;;;3.00;0.93;;;;;;;18.55;53.99;99702.44;5067225;28;20598;-60
2021/12/29 07:29:42;;;;;;;1.80;0.77;;;;;;;18.58;53.91;99695.94;5067185;28;20210;-59
2021/12/29 07:32:08;;;;;;;2.13;0.87;;;;;;;18.61;53.96;99697.97;5065800;28;20635;-60
2021/12/29 07:34:34;;;;;;;1.80;0.73;;;;;;;18.60;54.08;99704.91;5068190;28;20425;-60
2021/12/29 07:36:59;;;;;;;1.97;0.80;;;;;;;18.61;53.93;99712.28;5067797;28;20844;-60
2021/12/29 07:39:24;;;;;;;1.83;0.83;;;;;;;18.59;54.05;99703.28;5068210;28;20556;-59
2021/12/29 07:41:50;;;;;;;2.27;0.83;;;;;;;18.60;53.99;99706.94;5067967;28;20170;-60
2021/12/29 07:44:17;;;;;;;3.20;0.77;;;;;;;18.65;53.74;99716.00;5068940;28;20191;-61
2021/12/29 07:46:44;;;;;;;2.03;0.90;;;;;;;18.59;53.99;99717.59;5067847;28;20213;-59
2021/12/29 07:49:09;;;;;;;2.03;0.80;;;;;;;18.60;53.84;99716.34;5061505;28;20440;-60
2021/12/29 07:51:35;;;;;;;1.87;0.97;;;;;;;18.62;53.96;99731.06;5068359;28;20769;-60
2021/12/29 07:54:00;;;;;;;4.23;0.80;;;;;;;18.65;53.72;99729.44;5067749;28;20297;-60
2021/12/29 07:56:26;;;;;;;3.50;0.80;;;;;;;18.63;53.90;99735.59;5068463;28;20631;-59
2021/12/29 07:58:52;;;;;;;1.93;0.80;;;;;;;18.61;53.84;99743.72;5071751;28;20709;-60
2021/12/29 08:01:17;;;;;;;2.33;1.07;;;;;;;18.62;54.01;99741.69;5070351;28;20186;-60
2021/12/29 08:03:43;;;;;;;1.47;0.67;;;;;;;18.62;53.62;99748.22;5072124;28;20171;-60
2021/12/29 08:06:08;;;;;;;3.47;0.70;;;;;;;18.61;53.73;99743.72;5072245;28;20199;-60
2021/12/29 08:08:33;;;;;;;2.13;0.80;;;;;;;18.61;53.87;99746.59;5071410;28;20224;-60
2021/12/29 08:10:59;;;;;;;2.03;0.73;;;;;;;18.60;53.84;99756.38;5066242;28;20188;-60
2021/12/29 08:13:24;;;;;;;2.33;0.97;;;;;;;18.61;54.11;99746.59;5072618;28;20209;-60
2021/12/29 08:15:50;;;;;;;1.90;0.87;;;;;;;18.63;53.71;99751.91;5077038;28;20232;-60
2021/12/29 08:18:15;;;;;;;2.83;0.73;;;;;;;18.64;53.61;99750.69;5069474;28;20627;-60
2021/12/29 08:20:41;;;;;;;3.43;0.67;;;;;;;18.62;53.47;99735.97;5071445;28;20171;-60
2021/12/29 08:23:07;;;;;;;1.50;0.80;;;;;;;18.65;53.64;99740.88;5071384;28;20210;-59
2021/12/29 08:25:33;;;;;;;1.50;0.60;;;;;;;18.61;53.93;99737.22;5071737;28;20662;-60
2021/12/29 08:27:58;;;;;;;2.53;1.13;;;;;;;18.64;53.47;99739.25;5053033;28;20484;-60
2021/12/29 08:30:24;;;;;;;2.67;0.90;;;;;;;18.62;53.60;99744.56;5070391;28;20367;-60
2021/12/29 08:32:49;;;;;;;2.53;1.20;;;;;;;18.61;53.62;99740.06;5066672;28;20179;-60
2021/12/29 08:35:14;;;;;;;1.70;0.70;;;;;;;18.64;53.72;99727.81;5068927;28;20167;-60
2021/12/29 08:37:40;;;;;;;2.30;0.97;;;;;;;18.62;53.95;99719.63;5071473;28;20175;-59
2021/12/29 08:40:07;;;;;;;3.03;1.00;;;;;;;18.66;53.73;99719.69;5071039;28;20225;-60
2021/12/29 08:42:33;;;;;;;2.03;0.90;;;;;;;18.61;53.79;99712.28;5070276;28;20717;-60
2021/12/29 08:44:58;;;;;;;2.33;0.90;;;;;;;18.62;53.51;99716.78;5071774;28;20489;-59
2021/12/29 08:47:24;;;;;;;2.27;0.97;;;;;;;18.59;53.81;99720.44;5068878;28;20194;-60
2021/12/29 08:49:49;;;;;;;1.50;0.73;;;;;;;18.64;53.47;99713.53;5071001;28;20186;-59
2021/12/29 08:52:15;;;;;;;1.93;0.80;;;;;;;18.60;54.24;99721.25;5069901;28;20171;-60
2021/12/29 08:54:40;;;;;;;1.93;0.70;;;;;;;18.64;53.54;99728.66;5069167;28;20647;-59
2021/12/29 08:57:06;;;;;;;1.90;1.03;;;;;;;18.65;53.37;99727.44;5069799;28;20627;-59
2021/12/29 08:59:32;;;;;;;2.27;0.90;;;;;;;18.65;53.63;99730.28;5069568;28;20733;-60
2021/12/29 09:01:57;;;;;;;1.93;1.07;;;;;;;18.63;54.00;99737.63;5069858;28;20183;-59
2021/12/29 09:04:22;;;;;;;2.17;0.80;;;;;;;18.62;53.67;99745.38;5069623;28;20479;-60
2021/12/29 09:06:48;;;;;;;6.13;0.93;;;;;;;18.65;53.46;99747.44;5070730;28;20198;-60
2021/12/29 09:09:13;;;;;;;2.20;0.63;;;;;;;18.63;53.72;99747.03;5070156;28;20179;-59
2021/12/29 09:11:39;;;;;;;2.33;1.07;;;;;;;18.63;53.84;99749.88;5069107;28;20240;-60
2021/12/29 09:14:05;;;;;;;2.00;0.80;;;;;;;18.60;54.24;99753.53;5069496;28;20689;-59
2021/12/29 09:16:31;;;;;;;2.50;0.87;;;;;;;18.59;53.99;99748.19;5069926;28;20642;-60
2021/12/29 09:18:56;;;;;;;1.80;0.70;;;;;;;18.64;53.58;99744.97;5069285;28;20447;-60
2021/12/29 09:21:21;;;;;;;2.10;1.10;;;;;;;18.61;53.53;99749.44;5051016;28;20179;-63
2021/12/29 09:23:47;;;;;;;3.23;0.87;;;;;;;18.60;53.77;99744.94;5069673;28;20209;-60
2021/12/29 09:26:14;;;;;;;3.00;0.90;;;;;;;18.63;53.56;99749.06;5069044;28;20178;-60
2021/12/29 09:28:40;;;;;;;2.07;0.60;;;;;;;18.61;53.94;99749.44;5068303;28;20556;-60
2021/12/29 09:31:05;;;;;;;2.60;0.90;;;;;;;18.63;53.90;99758.47;5070370;28;20447;-59
2021/12/29 09:33:31;;;;;;;1.80;0.80;;;;;;;18.65;53.42;99758.03;5066998;28;20917;-60
2021/12/29 09:36:02;;;;;;;1.90;1.00;;;;;;;18.62;53.64;99751.06;5070238;28;20240;-59
2021/12/29 09:38:29;;;;;;;2.20;0.87;;;;;;;18.61;53.67;99760.88;5067961;28;20166;-60
2021/12/29 09:40:54;;;;;;;2.67;0.77;;;;;;;18.63;53.63;99771.94;5070068;28;20475;-60
2021/12/29 09:43:20;;;;;;;2.67;0.90;;;;;;;18.60;53.67;99770.69;5067846;28;20430;-60
2021/12/29 09:45:48;;;;;;;3.63;0.97;;;;;;;18.60;53.96;99770.69;5060243;28;20209;-60
2021/12/29 09:48:14;;;;;;;1.90;0.90;;;;;;;18.57;53.96;99780.03;5067623;28;20174;-60
2021/12/29 09:50:39;;;;;;;1.67;0.67;;;;;;;18.64;53.66;99773.56;5069089;28;20434;-60
2021/12/29 09:53:06;;;;;;;2.67;1.00;;;;;;;18.63;53.55;99772.75;5069483;28;20186;-60
2021/12/29 09:55:31;;;;;;;2.00;1.00;;;;;;;18.61;53.55;99775.16;5058949;28;20179;-60
2021/12/29 09:57:57;;;;;;;2.00;0.90;;;;;;;18.63;53.52;99769.91;5049992;28;21125;-60
2021/12/29 10:00:33;;;;;;;2.80;1.17;;;;;;;18.65;53.45;99780.91;5065495;28;20226;-60
2021/12/29 10:03:00;;;;;;;2.23;0.90;;;;;;;18.62;53.63;99782.53;5070150;28;20520;-60
2021/12/29 10:05:27;;;;;;;1.93;0.90;;;;;;;18.64;53.54;99788.69;5068728;28;20453;-60
2021/12/29 10:07:57;;;;;;;2.30;0.80;;;;;;;18.61;53.71;99786.59;5085926;28;20441;-60
2021/12/29 10:10:23;;;;;;;1.70;0.80;;;;;;;18.63;53.40;99786.22;5069619;28;20433;-60
2021/12/29 10:12:49;;;;;;;2.60;0.87;;;;;;;18.63;53.56;99772.75;5069112;28;20737;-60
2021/12/29 10:15:14;;;;;;;2.00;0.73;;;;;;;18.62;53.79;99782.53;5068159;28;20744;-59
2021/12/29 10:17:40;;;;;;;2.67;0.90;;;;;;;18.62;53.46;99773.94;5069963;28;20183;-59
2021/12/29 10:20:08;;;;;;;3.10;1.17;;;;;;;18.61;53.54;99775.16;5068779;28;20209;-60
2021/12/29 10:22:33;;;;;;;2.13;0.93;;;;;;;18.65;53.83;99773.19;5069542;28;20578;-60
2021/12/29 10:25:15;;;;;;;1.97;0.90;;;;;;;18.66;53.66;99766.22;5068884;28;20533;-61
2021/12/29 10:27:41;;;;;;;2.67;0.93;;;;;;;18.63;53.73;99771.94;5069483;28;20170;-60
2021/12/29 10:30:19;;;;;;;3.03;1.00;;;;;;;18.65;53.51;99766.63;5068948;28;20940;-60
2021/12/29 10:32:45;;;;;;;2.37;0.80;;;;;;;18.68;53.70;99757.25;5067814;28;20185;-59
2021/12/29 10:35:19;;;;;;;2.00;0.90;;;;;;;18.62;53.63;99751.06;5068141;28;20433;-60
2021/12/29 10:37:44;;;;;;;2.80;0.90;;;;;;;18.65;53.31;99753.16;5065901;28;20557;-60
2021/12/29 10:40:15;;;;;;;1.60;0.80;;;;;;;18.63;53.58;99757.63;5067064;28;20407;-60
2021/12/29 10:42:41;;;;;;;1.50;0.67;;;;;;;18.65;53.43;99766.63;5076922;28;20190;-59
2021/12/29 10:45:07;;;;;;;2.07;0.90;;;;;;;18.64;53.33;99757.25;5054954;28;20526;-60
2021/12/29 10:47:34;;;;;;;3.40;1.13;;;;;;;18.65;53.74;99752.31;5069212;28;20221;-60
2021/12/29 10:50:08;;;;;;;3.83;0.87;;;;;;;18.65;54.09;99747.44;5067614;28;20256;-60
2021/12/29 10:52:37;;;;;;;3.23;0.80;;;;;;;18.65;53.72;99746.59;5069365;28;20502;-60
2021/12/29 10:55:08;;;;;;;2.17;0.90;;;;;;;18.63;53.62;99740.47;5068115;28;20551;-59
2021/12/29 10:57:33;;;;;;;1.67;0.80;;;;;;;18.63;53.65;99737.63;5069262;28;20921;-60
2021/12/29 10:59:59;;;;;;;1.60;0.70;;;;;;;18.64;53.54;99728.66;5068076;28;20465;-60
2021/12/29 11:02:29;;;;;;;1.90;0.90;;;;;;;18.63;53.32;99731.91;5050402;28;20186;-60
2021/12/29 11:04:56;;;;;;;2.03;0.83;;;;;;;18.65;53.34;99724.56;5068173;28;20507;-60
2021/12/29 11:07:29;;;;;;;2.07;0.70;;;;;;;18.63;53.76;99729.03;5066318;28;20971;-60
2021/12/29 11:09:55;;;;;;;1.60;0.80;;;;;;;18.66;53.83;99717.63;5067956;28;20427;-60
2021/12/29 11:12:23;;;;;;;1.73;0.90;;;;;;;18.67;53.56;99721.31;5068225;28;20414;-60
2021/12/29 11:14:53;;;;;;;1.67;0.80;;;;;;;18.64;53.62;99727.81;5068737;28;20947;-60
2021/12/29 11:17:23;;;;;;;2.50;0.97;;;;;;;18.64;53.45;99733.53;5066826;28;20414;-60
2021/12/29 11:19:50;;;;;;;1.70;0.70;;;;;;;18.63;54.01;99731.91;5067249;28;20469;-60
2021/12/29 11:22:17;;;;;;;2.10;1.03;;;;;;;18.64;53.53;99730.69;5068538;28;20798;-60
2021/12/29 11:24:43;;;;;;;2.03;0.60;;;;;;;18.66;53.28;99737.63;5067338;28;20461;-60
2021/12/29 11:27:16;;;;;;;3.27;0.90;;;;;;;18.63;53.72;99737.63;5049425;28;20543;-60
2021/12/29 11:29:53;;;;;;;2.23;1.00;;;;;;;18.60;53.98;99741.25;5048921;28;20422;-60
2021/12/29 11:32:24;;;;;;;1.80;0.70;;;;;;;18.62;54.15;99735.97;5048985;28;20398;-60